createdAt,value
2022-10-06T00:02:19.152Z,2.85
2022-10-06T00:04:47.071Z,2.47
2022-10-06T00:07:14.985Z,2.63
2022-10-06T00:09:41.927Z,2.45
2022-10-06T00:12:09.207Z,2.53
2022-10-06T00:14:36.457Z,2.40
2022-10-06T00:17:03.227Z,2.95
2022-10-06T00:19:29.623Z,2.53
2022-10-06T00:21:55.967Z,2.13
2022-10-06T00:24:22.378Z,2.35
2022-10-06T00:26:48.750Z,3.00
2022-10-06T00:29:15.086Z,2.10
2022-10-06T00:31:41.882Z,2.42
2022-10-06T00:34:08.245Z,2.20
2022-10-06T00:36:34.691Z,2.40
2022-10-06T00:39:01.202Z,2.03
2022-10-06T00:41:27.676Z,1.88
2022-10-06T00:43:58.980Z,2.30
2022-10-06T00:46:48.197Z,1.88
2022-10-06T00:49:22.799Z,1.95
2022-10-06T00:51:54.822Z,2.05
2022-10-06T00:54:21.835Z,2.15
2022-10-06T00:56:48.304Z,2.22
2022-10-06T00:59:18.211Z,3.17
2022-10-06T01:02:09.497Z,1.80
2022-10-06T01:04:40.909Z,2.42
2022-10-06T01:07:07.994Z,2.10
2022-10-06T01:09:34.980Z,2.10
2022-10-06T01:12:04.524Z,2.40
2022-10-06T01:14:32.018Z,2.00
2022-10-06T01:17:22.257Z,2.50
2022-10-06T01:20:00.337Z,1.88
2022-10-06T01:22:33.886Z,2.15
2022-10-06T01:25:00.544Z,2.30
2022-10-06T01:27:29.777Z,2.10
2022-10-06T01:29:57.651Z,2.53
2022-10-06T01:32:26.572Z,2.10
2022-10-06T01:34:53.002Z,2.08
2022-10-06T01:37:19.385Z,2.08
2022-10-06T01:39:45.793Z,2.40
2022-10-06T01:42:12.187Z,2.55
2022-10-06T01:44:38.577Z,3.05
2022-10-06T01:47:06.457Z,2.50
2022-10-06T01:49:33.463Z,2.35
2022-10-06T01:52:00.006Z,2.38
2022-10-06T01:54:26.414Z,2.40
2022-10-06T01:56:52.945Z,2.83
2022-10-06T01:59:19.338Z,2.80
2022-10-06T02:01:45.818Z,2.05
2022-10-06T02:04:12.192Z,2.38
2022-10-06T02:06:38.708Z,2.33
2022-10-06T02:09:05.221Z,2.38
2022-10-06T02:11:31.584Z,2.20
2022-10-06T02:13:57.960Z,2.67
2022-10-06T02:16:24.344Z,2.03
2022-10-06T02:18:50.714Z,2.30
2022-10-06T02:21:19.501Z,2.53
2022-10-06T02:23:46.265Z,2.20
2022-10-06T02:26:13.404Z,2.30
2022-10-06T02:28:39.977Z,1.83
2022-10-06T02:31:09.314Z,2.10
2022-10-06T02:33:36.852Z,2.13
2022-10-06T02:36:05.074Z,2.15
2022-10-06T02:38:32.467Z,2.53
2022-10-06T02:41:00.094Z,2.00
2022-10-06T02:43:29.585Z,2.00
2022-10-06T02:45:57.538Z,2.10
2022-10-06T02:48:25.435Z,1.80
2022-10-06T02:50:57.526Z,2.40
2022-10-06T02:53:25.704Z,2.00
2022-10-06T02:56:07.890Z,1.60
2022-10-06T02:58:34.764Z,2.10
2022-10-06T03:01:15.913Z,1.95
2022-10-06T03:03:43.509Z,2.65
2022-10-06T03:06:24.392Z,2.33
2022-10-06T03:09:09.644Z,2.05
2022-10-06T03:11:39.098Z,2.17
2022-10-06T03:14:06.651Z,1.88
2022-10-06T03:16:39.035Z,2.45
2022-10-06T03:19:06.419Z,2.20
2022-10-06T03:21:35.735Z,2.00
2022-10-06T03:24:02.370Z,2.58
2022-10-06T03:26:34.143Z,2.00
2022-10-06T03:29:00.991Z,1.70
2022-10-06T03:31:28.184Z,1.00
2022-10-06T03:33:56.500Z,1.05
2022-10-06T03:36:24.698Z,1.25
2022-10-06T03:38:51.193Z,1.08
2022-10-06T03:41:22.929Z,0.50
2022-10-06T03:43:50.655Z,0.20
2022-10-06T03:46:19.860Z,0.50
2022-10-06T03:48:47.566Z,1.02
2022-10-06T03:51:19.922Z,0.60
2022-10-06T03:53:48.520Z,0.47
2022-10-06T03:56:16.118Z,0.47
2022-10-06T03:58:44.716Z,0.55
2022-10-06T04:01:15.935Z,0.70
2022-10-06T04:03:42.868Z,0.50
2022-10-06T04:06:12.540Z,0.30
2022-10-06T04:08:40.631Z,0.30
2022-10-06T04:11:12.593Z,0.40
2022-10-06T04:13:39.776Z,0.43
2022-10-06T04:16:14.153Z,0.30
2022-10-06T04:18:41.365Z,0.43
2022-10-06T04:21:08.162Z,0.22
2022-10-06T04:23:36.475Z,0.30
2022-10-06T04:26:09.395Z,0.30
2022-10-06T04:28:38.185Z,0.40
2022-10-06T04:31:10.001Z,0.20
2022-10-06T04:33:36.441Z,0.38
2022-10-06T04:36:06.422Z,0.50
2022-10-06T04:38:34.695Z,0.50
2022-10-06T04:41:08.947Z,0.38
2022-10-06T04:43:35.550Z,2.70
2022-10-06T04:46:18.207Z,2.05
2022-10-06T04:48:53.788Z,1.00
2022-10-06T04:51:22.540Z,0.95
2022-10-06T04:53:49.227Z,0.57
2022-10-06T04:56:18.200Z,0.60
2022-10-06T04:58:49.195Z,1.15
2022-10-06T05:01:26.213Z,0.70
2022-10-06T05:03:57.569Z,0.68
2022-10-06T05:06:26.742Z,0.65
2022-10-06T05:09:01.472Z,0.50
2022-10-06T05:11:28.680Z,0.50
2022-10-06T05:13:56.723Z,0.60
2022-10-06T05:16:24.749Z,0.77
2022-10-06T05:18:51.232Z,1.02
2022-10-06T05:21:20.567Z,1.08
2022-10-06T05:23:47.236Z,1.13
2022-10-06T05:26:16.747Z,0.90
2022-10-06T05:28:43.557Z,0.60
2022-10-06T05:31:11.789Z,0.80
2022-10-06T05:33:38.750Z,0.70
2022-10-06T05:36:07.697Z,0.57
2022-10-06T05:38:34.536Z,0.77
2022-10-06T05:41:02.925Z,0.90
2022-10-06T05:43:29.365Z,1.08
2022-10-06T05:45:58.682Z,0.80
2022-10-06T05:48:27.168Z,1.15
2022-10-06T05:51:05.761Z,0.77
2022-10-06T05:53:35.371Z,0.82
2022-10-06T05:56:22.211Z,1.23
2022-10-06T05:58:53.458Z,1.27
2022-10-06T06:01:25.995Z,2.17
2022-10-06T06:04:00.156Z,1.60
2022-10-06T06:06:29.780Z,1.10
2022-10-06T06:09:10.691Z,1.10
2022-10-06T06:11:41.362Z,0.60
2022-10-06T06:14:10.221Z,1.15
2022-10-06T06:16:39.090Z,1.20
2022-10-06T06:19:07.896Z,0.95
2022-10-06T06:21:34.305Z,0.82
2022-10-06T06:24:00.995Z,0.85
2022-10-06T06:26:29.529Z,0.80
2022-10-06T06:29:05.314Z,0.82
2022-10-06T06:31:37.822Z,0.55
2022-10-06T06:34:06.555Z,0.52
2022-10-06T06:36:36.743Z,0.93
2022-10-06T06:39:05.642Z,0.75
2022-10-06T06:41:34.041Z,0.82
2022-10-06T06:44:00.901Z,0.60
2022-10-06T06:46:31.706Z,1.27
2022-10-06T06:49:04.205Z,0.80
2022-10-06T06:51:36.773Z,1.05
2022-10-06T06:54:04.201Z,1.20
2022-10-06T06:56:38.629Z,0.82
2022-10-06T06:59:08.834Z,1.50
2022-10-06T07:01:35.211Z,0.95
2022-10-06T07:04:01.572Z,0.98
2022-10-06T07:06:29.584Z,0.98
2022-10-06T07:08:59.930Z,0.85
2022-10-06T07:11:28.280Z,0.93
2022-10-06T07:13:57.820Z,0.68
2022-10-06T07:16:43.623Z,0.95
2022-10-06T07:19:30.353Z,1.20
2022-10-06T07:22:21.231Z,0.80
2022-10-06T07:25:06.541Z,0.93
2022-10-06T07:27:44.226Z,1.00
2022-10-06T07:30:14.999Z,1.17
2022-10-06T07:32:41.366Z,1.65
2022-10-06T07:35:08.134Z,0.73
2022-10-06T07:37:37.275Z,0.90
2022-10-06T07:40:05.727Z,1.33
2022-10-06T07:42:47.864Z,1.20
2022-10-06T07:45:36.834Z,0.90
2022-10-06T07:48:03.846Z,1.10
2022-10-06T07:50:30.642Z,0.90
2022-10-06T07:52:56.969Z,1.00
2022-10-06T07:55:23.916Z,1.80
2022-10-06T07:57:51.196Z,2.08
2022-10-06T08:00:20.919Z,1.42
2022-10-06T08:02:47.409Z,1.10
2022-10-06T08:05:14.136Z,0.65
2022-10-06T08:07:41.437Z,1.83
2022-10-06T08:10:08.255Z,1.83
2022-10-06T08:12:34.778Z,1.00
2022-10-06T08:15:06.156Z,1.20
2022-10-06T08:17:35.446Z,1.33
2022-10-06T08:20:01.996Z,1.48
2022-10-06T08:22:30.043Z,1.85
2022-10-06T08:25:07.684Z,1.50
2022-10-06T08:27:35.334Z,1.35
2022-10-06T08:30:03.379Z,1.42
2022-10-06T08:32:29.959Z,1.40
2022-10-06T08:34:56.947Z,1.10
2022-10-06T08:37:23.879Z,1.05
2022-10-06T08:39:54.486Z,1.30
2022-10-06T08:42:31.986Z,1.02
2022-10-06T08:45:02.862Z,0.90
2022-10-06T08:47:34.006Z,1.10
2022-10-06T08:50:01.526Z,0.77
2022-10-06T08:52:56.249Z,1.23
2022-10-06T08:55:28.938Z,1.10
2022-10-06T09:00:42.007Z,1.00
2022-10-06T09:03:23.955Z,1.02
2022-10-06T09:06:02.725Z,1.45
2022-10-06T09:08:41.934Z,1.33
2022-10-06T09:11:32.120Z,1.17
2022-10-06T09:14:10.534Z,0.88
2022-10-06T09:16:41.716Z,1.02
2022-10-06T09:19:36.882Z,1.30
2022-10-06T09:22:06.678Z,1.60
2022-10-06T09:24:39.797Z,1.63
2022-10-06T09:27:21.645Z,2.25
2022-10-06T09:29:48.673Z,1.50
2022-10-06T09:32:17.286Z,1.20
2022-10-06T09:34:49.186Z,1.05
2022-10-06T09:37:15.961Z,1.77
2022-10-06T09:39:49.350Z,1.55
2022-10-06T09:42:18.575Z,1.35
2022-10-06T09:44:51.304Z,1.50
2022-10-06T09:47:36.579Z,1.23
2022-10-06T09:50:10.052Z,1.00
2022-10-06T09:52:36.383Z,1.30
2022-10-06T09:55:28.675Z,1.92
2022-10-06T09:57:57.133Z,1.02
2022-10-06T10:00:38.562Z,1.35
2022-10-06T10:03:07.716Z,1.13
2022-10-06T10:05:37.198Z,1.30
2022-10-06T10:08:10.090Z,1.45
2022-10-06T10:10:37.424Z,1.10
2022-10-06T10:13:18.455Z,1.05
2022-10-06T10:15:55.710Z,1.27
2022-10-06T10:18:27.674Z,1.00
2022-10-06T10:21:08.540Z,1.05
2022-10-06T10:23:43.077Z,1.60
2022-10-06T10:26:27.004Z,1.85
2022-10-06T10:29:12.159Z,2.67
2022-10-06T10:31:53.541Z,1.42
2022-10-06T10:34:43.180Z,1.48
2022-10-06T10:37:14.087Z,1.48
2022-10-06T10:39:51.020Z,1.38
2022-10-06T10:42:23.944Z,1.20
2022-10-06T10:45:00.077Z,1.40
2022-10-06T10:47:38.847Z,1.42
2022-10-06T10:50:20.587Z,1.17
2022-10-06T10:52:50.732Z,1.00
2022-10-06T10:55:26.722Z,1.17
2022-10-06T10:57:58.389Z,1.90
2022-10-06T11:00:29.431Z,0.75
2022-10-06T11:02:58.838Z,1.20
2022-10-06T11:05:54.561Z,1.20
2022-10-06T11:08:29.788Z,1.10
2022-10-06T11:11:01.990Z,1.85
2022-10-06T11:13:52.340Z,1.40
2022-10-06T11:16:41.423Z,1.63
2022-10-06T11:19:27.478Z,1.08
2022-10-06T11:22:03.529Z,0.90
2022-10-06T11:24:58.876Z,1.25
2022-10-06T11:27:48.007Z,0.82
2022-10-06T11:30:26.553Z,0.95
2022-10-06T11:33:24.270Z,1.10
2022-10-06T11:35:51.131Z,1.25
2022-10-06T11:38:35.725Z,0.95
2022-10-06T11:41:25.755Z,1.50
2022-10-06T11:44:00.528Z,1.75
2022-10-06T11:46:38.277Z,1.10
2022-10-06T11:49:28.241Z,0.90
2022-10-06T11:52:08.486Z,1.10
2022-10-06T11:54:44.470Z,0.95
2022-10-06T11:57:26.264Z,1.02
2022-10-06T12:00:02.101Z,1.00
2022-10-06T12:02:34.509Z,1.20
2022-10-06T12:05:28.491Z,1.08
2022-10-06T12:07:55.978Z,0.98
2022-10-06T12:10:28.212Z,0.90
2022-10-06T12:13:31.789Z,1.08
2022-10-06T12:19:41.698Z,1.02
2022-10-06T12:22:07.976Z,1.15
2022-10-06T12:24:45.127Z,1.60
2022-10-06T12:27:27.058Z,1.17
2022-10-06T12:30:03.404Z,1.40
2022-10-06T12:32:46.459Z,1.10
2022-10-06T12:35:30.179Z,1.25
2022-10-06T12:38:00.529Z,1.05
2022-10-06T12:40:46.575Z,0.98
2022-10-06T12:43:21.573Z,1.10
2022-10-06T12:45:57.253Z,0.90
2022-10-06T12:48:45.318Z,1.13
2022-10-06T12:51:34.922Z,1.02
2022-10-06T12:54:09.752Z,1.10
2022-10-06T12:56:38.980Z,1.25
2022-10-06T12:59:21.352Z,1.10
2022-10-06T13:01:50.573Z,1.45
2022-10-06T13:05:00.370Z,1.10
2022-10-06T13:07:33.102Z,0.80
2022-10-06T13:10:14.778Z,1.08
2022-10-06T13:12:47.151Z,1.27
2022-10-06T13:15:25.126Z,1.35
2022-10-06T13:18:00.110Z,1.20
2022-10-06T13:21:00.619Z,1.50
2022-10-06T13:23:34.862Z,1.00
2022-10-06T13:26:04.211Z,1.42
2022-10-06T13:28:45.171Z,1.00
2022-10-06T13:31:14.798Z,1.10
2022-10-06T13:33:43.492Z,1.20
2022-10-06T13:36:11.283Z,0.93
2022-10-06T13:38:38.551Z,0.70
2022-10-06T13:41:13.730Z,0.90
2022-10-06T13:43:44.715Z,1.45
2022-10-06T13:46:14.835Z,1.38
2022-10-06T13:48:48.634Z,1.02
2022-10-06T13:51:18.726Z,1.25
2022-10-06T13:53:46.709Z,1.00
2022-10-06T13:56:26.985Z,1.00
2022-10-06T13:58:53.399Z,1.05
2022-10-06T14:01:30.836Z,1.48
2022-10-06T14:04:20.453Z,1.83
2022-10-06T14:06:58.875Z,1.00
2022-10-06T14:09:29.441Z,0.90
2022-10-06T14:12:11.048Z,1.20
2022-10-06T14:14:38.174Z,1.30
2022-10-06T14:17:04.944Z,1.60
2022-10-06T14:19:31.331Z,1.27
2022-10-06T14:21:57.779Z,1.00
2022-10-06T14:24:28.212Z,1.92
2022-10-06T14:27:00.914Z,1.08
2022-10-06T14:29:27.287Z,1.38
2022-10-06T14:31:53.692Z,1.40
2022-10-06T14:34:21.754Z,0.90
2022-10-06T14:36:55.147Z,1.30
2022-10-06T14:39:21.617Z,1.42
2022-10-06T14:41:48.042Z,1.25
2022-10-06T14:44:15.890Z,1.08
2022-10-06T14:46:47.040Z,0.90
2022-10-06T14:49:13.949Z,1.10
2022-10-06T14:51:42.674Z,0.65
2022-10-06T14:54:10.798Z,1.45
2022-10-06T14:56:39.032Z,1.10
2022-10-06T14:59:08.208Z,1.33
2022-10-06T15:01:36.872Z,1.15
2022-10-06T15:04:06.569Z,1.45
2022-10-06T15:06:51.449Z,1.20
2022-10-06T15:09:18.100Z,1.40
2022-10-06T15:11:44.673Z,1.20
2022-10-06T15:14:11.589Z,1.33
2022-10-06T15:16:44.335Z,2.72
2022-10-06T15:19:12.149Z,5.45
2022-10-06T15:21:46.112Z,3.83
2022-10-06T15:24:17.470Z,1.10
2022-10-06T15:27:03.636Z,1.33
2022-10-06T15:29:30.552Z,2.67
2022-10-06T15:31:58.551Z,1.85
2022-10-06T15:34:27.423Z,1.75
2022-10-06T15:36:55.521Z,1.67
2022-10-06T15:39:27.747Z,1.65
2022-10-06T15:41:54.434Z,3.75
2022-10-06T15:44:21.295Z,1.23
2022-10-06T15:46:55.876Z,4.50
2022-10-06T15:49:27.474Z,14.70
2022-10-06T15:52:02.939Z,25.88
2022-10-06T15:54:37.491Z,6.93
2022-10-06T15:57:07.417Z,17.08
2022-10-06T15:59:34.500Z,6.90
2022-10-06T16:02:04.421Z,6.57
2022-10-06T16:04:53.049Z,6.90
2022-10-06T16:07:20.244Z,2.70
2022-10-06T16:09:49.161Z,2.03
2022-10-06T16:12:21.535Z,3.45
2022-10-06T16:14:47.884Z,1.80
2022-10-06T16:17:14.963Z,4.80
2022-10-06T16:19:42.057Z,2.75
2022-10-06T16:22:12.264Z,1.80
2022-10-06T16:24:38.874Z,1.88
2022-10-06T16:27:05.823Z,2.97
2022-10-06T16:29:32.311Z,5.60
2022-10-06T16:32:01.623Z,4.45
2022-10-06T16:34:28.009Z,1.77
2022-10-06T16:36:54.348Z,1.58
2022-10-06T16:39:22.166Z,2.70
2022-10-06T16:41:49.975Z,2.72
2022-10-06T16:44:17.093Z,4.47
2022-10-06T16:46:43.686Z,4.15
2022-10-06T16:49:10.199Z,4.20
2022-10-06T16:51:42.310Z,3.88
2022-10-06T16:54:13.343Z,1.92
2022-10-06T16:56:42.092Z,3.70
2022-10-06T16:59:17.217Z,2.55
2022-10-06T17:01:44.316Z,2.85
2022-10-06T17:04:18.887Z,2.30
2022-10-06T17:06:50.736Z,2.53
2022-10-06T17:09:19.380Z,8.40
2022-10-06T17:11:49.320Z,3.92
2022-10-06T17:14:16.392Z,3.08
2022-10-06T17:16:44.623Z,2.17
2022-10-06T17:19:14.023Z,3.22
2022-10-06T17:21:46.279Z,1.65
2022-10-06T17:24:14.349Z,1.73
2022-10-06T17:26:43.085Z,2.42
2022-10-06T17:29:16.011Z,1.92
2022-10-06T17:31:43.470Z,1.92
2022-10-06T17:34:12.611Z,5.47
2022-10-06T17:36:47.377Z,2.35
2022-10-06T17:39:15.354Z,1.95
2022-10-06T17:41:43.201Z,1.50
2022-10-06T17:44:13.506Z,2.83
2022-10-06T17:46:45.231Z,2.30
2022-10-06T17:49:14.848Z,1.83
2022-10-06T17:51:43.423Z,1.88
2022-10-06T17:54:13.567Z,2.25
2022-10-06T17:56:40.209Z,2.63
2022-10-06T17:59:11.406Z,1.90
2022-10-06T18:02:12.517Z,8.38
2022-10-06T18:04:56.345Z,8.48
2022-10-06T18:07:38.338Z,8.90
2022-10-06T18:10:40.826Z,12.25
2022-10-06T18:13:07.266Z,5.85
2022-10-06T18:15:37.071Z,3.83
2022-10-06T18:18:04.655Z,5.43
2022-10-06T18:20:34.007Z,4.68
2022-10-06T18:23:00.397Z,2.95
2022-10-06T18:25:27.836Z,2.70
2022-10-06T18:27:54.219Z,2.88
2022-10-06T18:30:20.579Z,2.65
2022-10-06T18:38:27.232Z,3.30
2022-10-06T18:40:55.854Z,2.78
2022-10-06T18:43:22.882Z,2.75
2022-10-06T18:46:07.776Z,2.75
2022-10-06T18:48:52.996Z,2.10
2022-10-06T18:51:21.625Z,3.15
2022-10-06T18:54:29.411Z,3.80
2022-10-06T18:57:27.497Z,4.43
2022-10-06T18:59:57.355Z,5.35
2022-10-06T19:02:24.067Z,3.97
2022-10-06T19:05:14.272Z,2.97
2022-10-06T19:07:40.905Z,2.95
2022-10-06T19:10:19.728Z,3.58
2022-10-06T19:12:46.741Z,3.80
2022-10-06T19:15:21.096Z,3.35
2022-10-06T19:17:50.391Z,3.08
2022-10-06T19:20:24.486Z,3.80
2022-10-06T19:22:50.889Z,4.22
2022-10-06T19:25:20.197Z,5.57
2022-10-06T19:28:05.644Z,7.38
2022-10-06T19:30:38.114Z,7.22
2022-10-06T19:33:04.754Z,6.30
2022-10-06T19:35:31.118Z,5.93
2022-10-06T19:37:58.505Z,5.35
2022-10-06T19:40:25.025Z,6.65
2022-10-06T19:42:54.401Z,7.55
2022-10-06T19:45:21.050Z,6.63
2022-10-06T19:47:47.933Z,6.50
2022-10-06T19:50:16.836Z,6.07
2022-10-06T19:52:43.395Z,7.00
2022-10-06T19:55:09.827Z,6.15
2022-10-06T19:57:36.210Z,5.90
2022-10-06T20:00:06.899Z,5.60
2022-10-06T20:02:33.245Z,5.13
2022-10-06T20:04:59.559Z,4.20
2022-10-06T20:07:27.852Z,4.30
2022-10-06T20:09:54.690Z,4.10
2022-10-06T20:12:24.900Z,4.78
2022-10-06T20:14:53.333Z,5.20
2022-10-06T20:17:20.702Z,4.38
2022-10-06T20:19:47.148Z,4.22
2022-10-06T20:22:13.810Z,4.78
2022-10-06T20:24:40.230Z,4.10
2022-10-06T20:27:06.622Z,3.70
2022-10-06T20:29:33.160Z,4.20
2022-10-06T20:31:59.579Z,4.38
2022-10-06T20:34:31.946Z,3.92
2022-10-06T20:37:01.807Z,4.07
2022-10-06T20:39:48.565Z,3.53
2022-10-06T20:42:15.669Z,4.20
2022-10-06T20:44:42.831Z,4.25
2022-10-06T20:47:11.321Z,3.90
2022-10-06T20:49:38.312Z,3.70
2022-10-06T20:52:05.764Z,3.60
2022-10-06T20:54:34.766Z,3.28
2022-10-06T20:57:04.096Z,3.40
2022-10-06T20:59:31.827Z,3.08
2022-10-06T21:02:00.114Z,3.60
2022-10-06T21:04:30.233Z,3.13
2022-10-06T21:06:57.209Z,2.22
2022-10-06T21:09:24.533Z,2.83
2022-10-06T21:11:51.234Z,2.85
2022-10-06T21:14:18.340Z,2.90
2022-10-06T21:16:46.336Z,3.35
2022-10-06T21:19:15.388Z,3.97
2022-10-06T21:21:43.528Z,3.72
2022-10-06T21:24:10.251Z,3.40
2022-10-06T21:26:38.843Z,3.50
2022-10-06T21:29:05.331Z,3.30
2022-10-06T21:31:33.261Z,3.20
2022-10-06T21:34:01.457Z,3.50
2022-10-06T21:36:30.276Z,2.65
2022-10-06T21:38:58.363Z,2.65
2022-10-06T21:41:30.166Z,2.17
2022-10-06T21:44:07.822Z,2.80
2022-10-06T21:46:38.722Z,3.27
2022-10-06T21:49:09.245Z,3.33
2022-10-06T21:51:36.292Z,2.10
2022-10-06T21:54:03.289Z,2.80
2022-10-06T21:56:32.062Z,3.10
2022-10-06T21:58:59.269Z,3.20
2022-10-06T22:01:31.778Z,2.87
2022-10-06T22:04:00.258Z,3.30
2022-10-06T22:06:28.254Z,3.27
2022-10-06T22:08:56.071Z,3.37
2022-10-06T22:11:26.085Z,3.40
2022-10-06T22:13:57.942Z,2.47
2022-10-06T22:16:27.209Z,2.67
2022-10-06T22:18:54.337Z,2.70
2022-10-06T22:21:24.955Z,3.17
2022-10-06T22:23:56.679Z,2.77
2022-10-06T22:26:27.290Z,2.80
2022-10-06T22:28:56.489Z,3.23
2022-10-06T22:31:26.197Z,3.07
2022-10-06T22:33:55.466Z,2.80
2022-10-06T22:36:22.360Z,3.27
2022-10-06T22:38:49.046Z,3.00
2022-10-06T22:41:15.997Z,3.80
2022-10-06T22:43:45.301Z,2.93
2022-10-06T22:46:12.978Z,2.73
2022-10-06T22:48:40.290Z,2.67
2022-10-06T22:51:07.222Z,3.63
2022-10-06T22:53:34.282Z,3.37
2022-10-06T22:56:02.494Z,3.90
2022-10-06T22:58:29.167Z,3.30
2022-10-06T23:00:58.907Z,2.97
2022-10-06T23:03:25.668Z,3.60
2022-10-06T23:06:00.690Z,3.57
2022-10-06T23:08:32.720Z,3.27
2022-10-06T23:11:10.875Z,3.33
2022-10-06T23:13:37.626Z,3.13
2022-10-06T23:16:09.384Z,3.30
2022-10-06T23:18:37.930Z,2.67
2022-10-06T23:21:10.005Z,3.27
2022-10-06T23:23:36.631Z,4.00
2022-10-06T23:26:08.335Z,3.00
2022-10-06T23:28:34.881Z,2.93
2022-10-06T23:31:01.446Z,2.67
2022-10-06T23:33:31.211Z,3.30
2022-10-06T23:36:10.217Z,3.10
2022-10-06T23:38:38.067Z,3.33
2022-10-06T23:41:06.366Z,3.80
2022-10-06T23:43:33.308Z,3.60
2022-10-06T23:46:03.496Z,3.50
2022-10-06T23:48:30.060Z,3.17
2022-10-06T23:51:00.863Z,3.17
2022-10-06T23:53:28.711Z,4.40
2022-10-06T23:55:55.117Z,3.50
2022-10-06T23:58:22.619Z,3.10
